sensor_id;sensor_type;location;lat;lon;timestamp;noise_LAeq;noise_LA_min;noise_LA_max;noise_LA01;noise_LA95
67322;Laerm;57666;51.436;5.978;2023-07-28T00:00:03;48.16;46.92;49.09;;
67322;Laerm;57666;51.436;5.978;2023-07-28T00:00:14;48.14;47.37;49.22;;
67322;Laerm;57666;51.436;5.978;2023-07-28T00:00:28;48.15;47.00;49.10;;
67322;Laerm;57666;51.436;5.978;2023-07-28T00:00:38;48.13;47.20;49.09;;
67322;Laerm;57666;51.436;5.978;2023-07-28T00:00:51;48.15;47.26;49.41;;
67322;Laerm;57666;51.436;5.978;2023-07-28T00:01:04;48.14;47.17;49.16;;
67322;Laerm;57666;51.436;5.978;2023-07-28T00:01:14;48.16;47.40;49.40;;
67322;Laerm;57666;51.436;5.978;2023-07-28T00:01:25;48.14;47.05;49.44;;
67322;Laerm;57666;51.436;5.978;2023-07-28T00:01:35;48.15;47.34;49.25;;
67322;Laerm;57666;51.436;5.978;2023-07-28T00:01:46;48.15;47.35;49.33;;
67322;Laerm;57666;51.436;5.978;2023-07-28T00:01:56;48.15;47.41;48.90;;
67322;Laerm;57666;51.436;5.978;2023-07-28T00:02:07;48.18;47.43;49.92;;
67322;Laerm;57666;51.436;5.978;2023-07-28T00:02:17;48.14;47.31;49.42;;
67322;Laerm;57666;51.436;5.978;2023-07-28T00:02:28;48.13;47.20;49.07;;
67322;Laerm;57666;51.436;5.978;2023-07-28T00:02:38;48.11;47.04;49.29;;
67322;Laerm;57666;51.436;5.978;2023-07-28T00:02:49;48.11;47.32;49.05;;
67322;Laerm;57666;51.436;5.978;2023-07-28T00:02:59;48.13;47.17;49.17;;
67322;Laerm;57666;51.436;5.978;2023-07-28T00:03:10;48.14;47.36;48.96;;
67322;Laerm;57666;51.436;5.978;2023-07-28T00:03:20;48.17;47.23;49.36;;
67322;Laerm;57666;51.436;5.978;2023-07-28T00:03:31;48.16;46.89;49.09;;
67322;Laerm;57666;51.436;5.978;2023-07-28T00:03:41;48.13;47.21;49.41;;
67322;Laerm;57666;51.436;5.978;2023-07-28T00:03:55;48.16;47.30;49.17;;
67322;Laerm;57666;51.436;5.978;2023-07-28T00:04:05;48.14;47.21;48.88;;
67322;Laerm;57666;51.436;5.978;2023-07-28T00:04:20;48.18;47.20;49.18;;
67322;Laerm;57666;51.436;5.978;2023-07-28T00:04:31;48.18;47.16;49.99;;
67322;Laerm;57666;51.436;5.978;2023-07-28T00:04:41;48.13;47.08;49.07;;
67322;Laerm;57666;51.436;5.978;2023-07-28T00:04:52;48.16;46.96;49.22;;
67322;Laerm;57666;51.436;5.978;2023-07-28T00:05:02;48.15;46.87;49.36;;
67322;Laerm;57666;51.436;5.978;2023-07-28T00:05:13;48.15;47.36;49.45;;
67322;Laerm;57666;51.436;5.978;2023-07-28T00:05:23;48.19;47.38;49.67;;
67322;Laerm;57666;51.436;5.978;2023-07-28T00:05:34;48.15;47.38;49.23;;
67322;Laerm;57666;51.436;5.978;2023-07-28T00:05:45;48.19;47.22;49.51;;
67322;Laerm;57666;51.436;5.978;2023-07-28T00:05:58;48.20;47.36;50.07;;
67322;Laerm;57666;51.436;5.978;2023-07-28T00:06:09;48.19;47.03;49.48;;
67322;Laerm;57666;51.436;5.978;2023-07-28T00:06:19;48.16;47.38;49.84;;
67322;Laerm;57666;51.436;5.978;2023-07-28T00:06:31;48.21;47.32;49.40;;
67322;Laerm;57666;51.436;5.978;2023-07-28T00:06:44;48.18;47.21;49.74;;
67322;Laerm;57666;51.436;5.978;2023-07-28T00:06:55;48.14;47.14;49.24;;
67322;Laerm;57666;51.436;5.978;2023-07-28T00:07:05;48.16;47.10;49.55;;
67322;Laerm;57666;51.436;5.978;2023-07-28T00:07:17;48.14;47.22;49.31;;
67322;Laerm;57666;51.436;5.978;2023-07-28T00:07:28;48.19;47.11;49.35;;
67322;Laerm;57666;51.436;5.978;2023-07-28T00:07:38;48.20;47.17;49.09;;
67322;Laerm;57666;51.436;5.978;2023-07-28T00:07:49;48.23;47.24;49.27;;
67322;Laerm;57666;51.436;5.978;2023-07-28T00:08:00;48.27;47.15;49.50;;
67322;Laerm;57666;51.436;5.978;2023-07-28T00:08:10;48.24;47.39;49.05;;
67322;Laerm;57666;51.436;5.978;2023-07-28T00:08:21;48.19;47.29;49.71;;
67322;Laerm;57666;51.436;5.978;2023-07-28T00:08:31;48.20;47.12;49.51;;
67322;Laerm;57666;51.436;5.978;2023-07-28T00:08:42;48.22;47.31;49.90;;
67322;Laerm;57666;51.436;5.978;2023-07-28T00:08:53;48.49;47.28;50.30;;
67322;Laerm;57666;51.436;5.978;2023-07-28T00:09:04;48.51;47.45;50.47;;
67322;Laerm;57666;51.436;5.978;2023-07-28T00:09:14;48.43;47.22;51.15;;
67322;Laerm;57666;51.436;5.978;2023-07-28T00:09:25;48.45;47.41;49.82;;
67322;Laerm;57666;51.436;5.978;2023-07-28T00:09:35;48.46;47.33;50.34;;
67322;Laerm;57666;51.436;5.978;2023-07-28T00:09:46;48.48;47.07;50.29;;
67322;Laerm;57666;51.436;5.978;2023-07-28T00:09:56;48.25;47.35;50.13;;
67322;Laerm;57666;51.436;5.978;2023-07-28T00:10:10;48.20;47.12;49.46;;
67322;Laerm;57666;51.436;5.978;2023-07-28T00:10:23;48.19;47.26;49.27;;
67322;Laerm;57666;51.436;5.978;2023-07-28T00:10:33;48.19;47.28;48.95;;
67322;Laerm;57666;51.436;5.978;2023-07-28T00:10:44;48.21;47.45;49.85;;
67322;Laerm;57666;51.436;5.978;2023-07-28T00:10:54;48.18;47.26;49.50;;
67322;Laerm;57666;51.436;5.978;2023-07-28T00:11:08;48.19;47.22;49.33;;
67322;Laerm;57666;51.436;5.978;2023-07-28T00:11:21;48.19;47.30;49.10;;
67322;Laerm;57666;51.436;5.978;2023-07-28T00:11:31;48.18;47.27;49.17;;
67322;Laerm;57666;51.436;5.978;2023-07-28T00:11:42;48.18;47.45;49.16;;
67322;Laerm;57666;51.436;5.978;2023-07-28T00:11:56;48.16;47.26;49.15;;
67322;Laerm;57666;51.436;5.978;2023-07-28T00:12:13;48.17;47.18;49.62;;
67322;Laerm;57666;51.436;5.978;2023-07-28T00:12:26;48.22;47.28;49.38;;
67322;Laerm;57666;51.436;5.978;2023-07-28T00:12:36;48.20;47.41;49.22;;
67322;Laerm;57666;51.436;5.978;2023-07-28T00:12:47;48.18;47.12;49.54;;
67322;Laerm;57666;51.436;5.978;2023-07-28T00:13:00;48.18;47.13;49.55;;
67322;Laerm;57666;51.436;5.978;2023-07-28T00:13:12;48.16;47.23;49.61;;
67322;Laerm;57666;51.436;5.978;2023-07-28T00:13:24;48.17;47.15;49.04;;
67322;Laerm;57666;51.436;5.978;2023-07-28T00:13:35;48.16;47.11;49.35;;
67322;Laerm;57666;51.436;5.978;2023-07-28T00:13:45;48.29;47.23;50.15;;
67322;Laerm;57666;51.436;5.978;2023-07-28T00:13:56;48.25;47.17;49.47;;
67322;Laerm;57666;51.436;5.978;2023-07-28T00:14:06;48.21;47.31;49.26;;
67322;Laerm;57666;51.436;5.978;2023-07-28T00:14:17;48.27;47.28;50.02;;
67322;Laerm;57666;51.436;5.978;2023-07-28T00:14:27;48.25;47.27;49.46;;
67322;Laerm;57666;51.436;5.978;2023-07-28T00:14:38;48.19;47.30;49.78;;
67322;Laerm;57666;51.436;5.978;2023-07-28T00:14:52;48.20;47.19;49.60;;
67322;Laerm;57666;51.436;5.978;2023-07-28T00:15:02;48.20;47.38;49.48;;
67322;Laerm;57666;51.436;5.978;2023-07-28T00:15:13;48.18;47.34;49.14;;
67322;Laerm;57666;51.436;5.978;2023-07-28T00:15:25;48.20;47.20;49.67;;
67322;Laerm;57666;51.436;5.978;2023-07-28T00:15:36;48.21;47.21;49.70;;
67322;Laerm;57666;51.436;5.978;2023-07-28T00:15:46;48.18;47.24;49.13;;
67322;Laerm;57666;51.436;5.978;2023-07-28T00:15:57;48.19;47.37;49.13;;
67322;Laerm;57666;51.436;5.978;2023-07-28T00:16:08;48.20;47.19;49.13;;
67322;Laerm;57666;51.436;5.978;2023-07-28T00:16:19;48.20;47.34;49.43;;
67322;Laerm;57666;51.436;5.978;2023-07-28T00:16:30;48.19;47.33;49.08;;
67322;Laerm;57666;51.436;5.978;2023-07-28T00:16:42;48.20;47.28;49.50;;
67322;Laerm;57666;51.436;5.978;2023-07-28T00:16:53;48.19;47.17;49.54;;
67322;Laerm;57666;51.436;5.978;2023-07-28T00:17:04;48.17;47.19;49.23;;
67322;Laerm;57666;51.436;5.978;2023-07-28T00:17:17;48.19;47.15;49.06;;
67322;Laerm;57666;51.436;5.978;2023-07-28T00:17:28;48.18;47.27;49.48;;
67322;Laerm;57666;51.436;5.978;2023-07-28T00:17:38;48.25;47.29;49.52;;
67322;Laerm;57666;51.436;5.978;2023-07-28T00:17:52;48.22;47.22;49.22;;
67322;Laerm;57666;51.436;5.978;2023-07-28T00:18:02;48.27;47.41;49.82;;
67322;Laerm;57666;51.436;5.978;2023-07-28T00:18:13;48.32;47.20;49.82;;
67322;Laerm;57666;51.436;5.978;2023-07-28T00:18:23;48.20;47.17;49.61;;
67322;Laerm;57666;51.436;5.978;2023-07-28T00:18:34;48.18;46.96;48.96;;
67322;Laerm;57666;51.436;5.978;2023-07-28T00:18:44;48.19;47.36;48.99;;
67322;Laerm;57666;51.436;5.978;2023-07-28T00:18:54;48.17;47.23;49.23;;
67322;Laerm;57666;51.436;5.978;2023-07-28T00:19:05;48.17;47.31;49.44;;
67322;Laerm;57666;51.436;5.978;2023-07-28T00:19:16;48.16;47.25;49.21;;
67322;Laerm;57666;51.436;5.978;2023-07-28T00:19:26;48.16;47.21;49.22;;
67322;Laerm;57666;51.436;5.978;2023-07-28T00:19:37;48.23;47.32;50.78;;
67322;Laerm;57666;51.436;5.978;2023-07-28T00:19:47;48.15;47.31;49.19;;
67322;Laerm;57666;51.436;5.978;2023-07-28T00:20:00;48.15;47.17;49.14;;
67322;Laerm;57666;51.436;5.978;2023-07-28T00:20:11;48.14;47.29;49.20;;
67322;Laerm;57666;51.436;5.978;2023-07-28T00:20:21;48.19;47.31;49.68;;
67322;Laerm;57666;51.436;5.978;2023-07-28T00:20:32;48.15;47.29;49.85;;
67322;Laerm;57666;51.436;5.978;2023-07-28T00:20:42;48.15;47.17;49.29;;
67322;Laerm;57666;51.436;5.978;2023-07-28T00:20:53;48.15;47.09;49.13;;
67322;Laerm;57666;51.436;5.978;2023-07-28T00:21:04;48.16;47.17;49.22;;
67322;Laerm;57666;51.436;5.978;2023-07-28T00:21:15;48.17;47.19;49.03;;
67322;Laerm;57666;51.436;5.978;2023-07-28T00:21:26;48.16;47.34;49.41;;
67322;Laerm;57666;51.436;5.978;2023-07-28T00:21:36;48.16;47.25;49.27;;
67322;Laerm;57666;51.436;5.978;2023-07-28T00:21:47;48.15;47.06;49.10;;
67322;Laerm;57666;51.436;5.978;2023-07-28T00:21:58;48.19;47.30;49.53;;
67322;Laerm;57666;51.436;5.978;2023-07-28T00:22:08;48.19;47.21;49.54;;
67322;Laerm;57666;51.436;5.978;2023-07-28T00:22:18;48.16;47.35;49.07;;
67322;Laerm;57666;51.436;5.978;2023-07-28T00:22:29;48.16;47.18;48.98;;
67322;Laerm;57666;51.436;5.978;2023-07-28T00:22:39;48.18;47.25;49.16;;
67322;Laerm;57666;51.436;5.978;2023-07-28T00:22:49;48.14;47.21;49.05;;
67322;Laerm;57666;51.436;5.978;2023-07-28T00:23:00;48.14;47.17;49.21;;
67322;Laerm;57666;51.436;5.978;2023-07-28T00:23:10;48.19;47.18;49.37;;
67322;Laerm;57666;51.436;5.978;2023-07-28T00:23:21;48.13;47.35;49.43;;
67322;Laerm;57666;51.436;5.978;2023-07-28T00:23:31;48.16;47.24;48.98;;
67322;Laerm;57666;51.436;5.978;2023-07-28T00:23:42;48.14;47.13;49.12;;
67322;Laerm;57666;51.436;5.978;2023-07-28T00:23:52;48.12;47.15;48.91;;
67322;Laerm;57666;51.436;5.978;2023-07-28T00:24:03;48.17;47.30;48.90;;
67322;Laerm;57666;51.436;5.978;2023-07-28T00:24:14;48.14;47.33;48.93;;
67322;Laerm;57666;51.436;5.978;2023-07-28T00:24:25;48.15;47.14;49.09;;
67322;Laerm;57666;51.436;5.978;2023-07-28T00:24:35;48.13;47.25;49.10;;
67322;Laerm;57666;51.436;5.978;2023-07-28T00:24:45;48.16;47.08;49.51;;
67322;Laerm;57666;51.436;5.978;2023-07-28T00:24:56;48.13;47.22;49.10;;
67322;Laerm;57666;51.436;5.978;2023-07-28T00:25:10;48.19;47.00;49.45;;
67322;Laerm;57666;51.436;5.978;2023-07-28T00:25:20;48.17;47.32;49.50;;
67322;Laerm;57666;51.436;5.978;2023-07-28T00:25:32;48.19;47.27;50.37;;
67322;Laerm;57666;51.436;5.978;2023-07-28T00:25:42;48.19;47.25;49.06;;
67322;Laerm;57666;51.436;5.978;2023-07-28T00:25:53;48.19;47.41;50.60;;
67322;Laerm;57666;51.436;5.978;2023-07-28T00:26:03;48.15;47.26;49.65;;
67322;Laerm;57666;51.436;5.978;2023-07-28T00:26:14;48.12;47.21;49.02;;
67322;Laerm;57666;51.436;5.978;2023-07-28T00:26:26;48.13;47.24;48.93;;
67322;Laerm;57666;51.436;5.978;2023-07-28T00:26:36;48.12;46.94;49.15;;
67322;Laerm;57666;51.436;5.978;2023-07-28T00:26:49;48.12;47.08;49.03;;
67322;Laerm;57666;51.436;5.978;2023-07-28T00:26:59;48.12;47.34;49.38;;
67322;Laerm;57666;51.436;5.978;2023-07-28T00:27:10;48.13;47.24;49.09;;
67322;Laerm;57666;51.436;5.978;2023-07-28T00:27:20;48.15;47.29;49.15;;
67322;Laerm;57666;51.436;5.978;2023-07-28T00:27:31;48.13;47.36;49.20;;
67322;Laerm;57666;51.436;5.978;2023-07-28T00:27:41;48.14;47.02;49.33;;
67322;Laerm;57666;51.436;5.978;2023-07-28T00:27:51;48.16;47.17;49.34;;
67322;Laerm;57666;51.436;5.978;2023-07-28T00:28:05;48.13;47.25;49.51;;
67322;Laerm;57666;51.436;5.978;2023-07-28T00:28:16;48.13;47.31;49.29;;
67322;Laerm;57666;51.436;5.978;2023-07-28T00:28:27;48.15;47.10;49.22;;
67322;Laerm;57666;51.436;5.978;2023-07-28T00:28:37;48.13;47.18;49.14;;
67322;Laerm;57666;51.436;5.978;2023-07-28T00:28:47;48.14;47.19;49.07;;
67322;Laerm;57666;51.436;5.978;2023-07-28T00:28:58;48.18;46.91;49.70;;
67322;Laerm;57666;51.436;5.978;2023-07-28T00:29:11;48.14;47.22;49.25;;
67322;Laerm;57666;51.436;5.978;2023-07-28T00:29:22;48.15;47.26;49.75;;
67322;Laerm;57666;51.436;5.978;2023-07-28T00:29:32;48.15;47.15;49.15;;
67322;Laerm;57666;51.436;5.978;2023-07-28T00:29:43;48.15;47.36;49.27;;
67322;Laerm;57666;51.436;5.978;2023-07-28T00:29:53;48.12;47.16;49.06;;
67322;Laerm;57666;51.436;5.978;2023-07-28T00:30:04;48.15;47.23;48.91;;
67322;Laerm;57666;51.436;5.978;2023-07-28T00:30:14;48.14;47.31;49.28;;
67322;Laerm;57666;51.436;5.978;2023-07-28T00:30:28;48.17;47.06;49.21;;
67322;Laerm;57666;51.436;5.978;2023-07-28T00:30:38;48.13;47.22;49.03;;
67322;Laerm;57666;51.436;5.978;2023-07-28T00:30:49;48.17;47.41;49.55;;
67322;Laerm;57666;51.436;5.978;2023-07-28T00:30:59;48.17;47.23;49.41;;
67322;Laerm;57666;51.436;5.978;2023-07-28T00:31:10;48.13;47.11;49.31;;
67322;Laerm;57666;51.436;5.978;2023-07-28T00:31:20;48.12;47.10;49.20;;
67322;Laerm;57666;51.436;5.978;2023-07-28T00:31:31;48.12;47.09;49.11;;
67322;Laerm;57666;51.436;5.978;2023-07-28T00:31:41;48.13;47.16;49.02;;
67322;Laerm;57666;51.436;5.978;2023-07-28T00:31:51;48.14;47.22;48.98;;
67322;Laerm;57666;51.436;5.978;2023-07-28T00:32:03;48.15;47.39;49.46;;
67322;Laerm;57666;51.436;5.978;2023-07-28T00:32:13;48.12;47.11;49.06;;
67322;Laerm;57666;51.436;5.978;2023-07-28T00:32:23;48.20;47.05;49.43;;
67322;Laerm;57666;51.436;5.978;2023-07-28T00:32:34;48.16;47.37;49.30;;
67322;Laerm;57666;51.436;5.978;2023-07-28T00:32:44;48.16;47.21;49.11;;
67322;Laerm;57666;51.436;5.978;2023-07-28T00:32:55;48.16;47.33;49.43;;
67322;Laerm;57666;51.436;5.978;2023-07-28T00:33:05;48.17;47.03;49.22;;
67322;Laerm;57666;51.436;5.978;2023-07-28T00:33:15;48.12;47.06;48.94;;
67322;Laerm;57666;51.436;5.978;2023-07-28T00:33:26;48.10;47.09;48.93;;
67322;Laerm;57666;51.436;5.978;2023-07-28T00:33:37;48.14;47.19;49.11;;
67322;Laerm;57666;51.436;5.978;2023-07-28T00:33:47;48.14;47.08;49.36;;
67322;Laerm;57666;51.436;5.978;2023-07-28T00:33:58;48.14;47.09;48.97;;
67322;Laerm;57666;51.436;5.978;2023-07-28T00:34:11;48.18;47.33;49.46;;
67322;Laerm;57666;51.436;5.978;2023-07-28T00:34:25;48.14;47.24;49.57;;
67322;Laerm;57666;51.436;5.978;2023-07-28T00:34:38;48.12;47.20;49.42;;
67322;Laerm;57666;51.436;5.978;2023-07-28T00:34:49;48.18;47.13;49.29;;
67322;Laerm;57666;51.436;5.978;2023-07-28T00:35:00;48.09;47.18;49.20;;
67322;Laerm;57666;51.436;5.978;2023-07-28T00:35:10;48.14;47.15;49.16;;
67322;Laerm;57666;51.436;5.978;2023-07-28T00:35:21;48.16;47.22;49.41;;
67322;Laerm;57666;51.436;5.978;2023-07-28T00:35:32;48.17;47.28;48.92;;
67322;Laerm;57666;51.436;5.978;2023-07-28T00:35:42;48.12;46.92;49.24;;
67322;Laerm;57666;51.436;5.978;2023-07-28T00:35:53;48.15;47.42;49.28;;
67322;Laerm;57666;51.436;5.978;2023-07-28T00:36:06;48.13;47.07;49.10;;
67322;Laerm;57666;51.436;5.978;2023-07-28T00:36:16;48.10;47.19;49.47;;
67322;Laerm;57666;51.436;5.978;2023-07-28T00:36:27;48.13;47.08;49.12;;
67322;Laerm;57666;51.436;5.978;2023-07-28T00:36:38;48.24;47.36;49.99;;
67322;Laerm;57666;51.436;5.978;2023-07-28T00:36:48;48.26;47.34;50.54;;
67322;Laerm;57666;51.436;5.978;2023-07-28T00:36:59;48.21;47.27;49.94;;
67322;Laerm;57666;51.436;5.978;2023-07-28T00:37:09;48.14;47.18;49.55;;
67322;Laerm;57666;51.436;5.978;2023-07-28T00:37:20;48.15;47.17;49.84;;
67322;Laerm;57666;51.436;5.978;2023-07-28T00:37:33;48.14;47.36;49.18;;
67322;Laerm;57666;51.436;5.978;2023-07-28T00:37:43;48.13;47.25;49.47;;
67322;Laerm;57666;51.436;5.978;2023-07-28T00:37:54;48.17;47.38;48.90;;
67322;Laerm;57666;51.436;5.978;2023-07-28T00:38:04;48.18;47.34;49.39;;
67322;Laerm;57666;51.436;5.978;2023-07-28T00:38:15;48.16;47.17;49.32;;
67322;Laerm;57666;51.436;5.978;2023-07-28T00:38:27;48.13;47.09;49.71;;
67322;Laerm;57666;51.436;5.978;2023-07-28T00:38:37;48.13;47.03;49.28;;
67322;Laerm;57666;51.436;5.978;2023-07-28T00:38:48;48.14;47.39;49.28;;
67322;Laerm;57666;51.436;5.978;2023-07-28T00:38:59;48.16;47.25;48.99;;
67322;Laerm;57666;51.436;5.978;2023-07-28T00:39:09;48.15;47.34;49.18;;
67322;Laerm;57666;51.436;5.978;2023-07-28T00:39:20;48.13;47.16;48.82;;
67322;Laerm;57666;51.436;5.978;2023-07-28T00:39:34;48.13;47.24;49.10;;
67322;Laerm;57666;51.436;5.978;2023-07-28T00:39:50;48.15;47.27;49.46;;
67322;Laerm;57666;51.436;5.978;2023-07-28T00:40:04;48.16;47.26;49.79;;
67322;Laerm;57666;51.436;5.978;2023-07-28T00:40:14;48.16;47.22;49.29;;
67322;Laerm;57666;51.436;5.978;2023-07-28T00:40:27;48.11;47.16;49.12;;
67322;Laerm;57666;51.436;5.978;2023-07-28T00:40:40;48.21;47.27;50.19;;
67322;Laerm;57666;51.436;5.978;2023-07-28T00:40:51;48.18;47.23;49.46;;
67322;Laerm;57666;51.436;5.978;2023-07-28T00:41:01;48.17;47.13;49.07;;
67322;Laerm;57666;51.436;5.978;2023-07-28T00:41:11;48.14;47.23;49.83;;
67322;Laerm;57666;51.436;5.978;2023-07-28T00:41:22;48.16;47.46;49.32;;
67322;Laerm;57666;51.436;5.978;2023-07-28T00:41:32;48.12;47.36;49.06;;
67322;Laerm;57666;51.436;5.978;2023-07-28T00:41:43;48.15;47.17;49.01;;
67322;Laerm;57666;51.436;5.978;2023-07-28T00:41:53;48.13;47.18;49.02;;
67322;Laerm;57666;51.436;5.978;2023-07-28T00:42:03;48.16;47.34;49.23;;
67322;Laerm;57666;51.436;5.978;2023-07-28T00:42:14;48.16;47.38;49.25;;
67322;Laerm;57666;51.436;5.978;2023-07-28T00:42:24;48.14;47.19;48.96;;
67322;Laerm;57666;51.436;5.978;2023-07-28T00:42:35;48.12;47.30;49.39;;
67322;Laerm;57666;51.436;5.978;2023-07-28T00:42:45;48.14;47.15;49.13;;
67322;Laerm;57666;51.436;5.978;2023-07-28T00:42:56;48.16;47.27;49.01;;
67322;Laerm;57666;51.436;5.978;2023-07-28T00:43:06;48.15;47.15;49.45;;
67322;Laerm;57666;51.436;5.978;2023-07-28T00:43:17;48.14;47.35;49.31;;
67322;Laerm;57666;51.436;5.978;2023-07-28T00:43:27;48.11;47.04;49.16;;
67322;Laerm;57666;51.436;5.978;2023-07-28T00:43:38;48.13;47.39;49.33;;
67322;Laerm;57666;51.436;5.978;2023-07-28T00:43:48;48.13;47.14;49.01;;
67322;Laerm;57666;51.436;5.978;2023-07-28T00:43:58;48.17;47.01;49.66;;
67322;Laerm;57666;51.436;5.978;2023-07-28T00:44:09;48.12;47.12;49.28;;
67322;Laerm;57666;51.436;5.978;2023-07-28T00:44:19;48.16;47.35;49.37;;
67322;Laerm;57666;51.436;5.978;2023-07-28T00:44:30;48.13;47.29;48.89;;
67322;Laerm;57666;51.436;5.978;2023-07-28T00:44:40;48.15;47.13;48.97;;
67322;Laerm;57666;51.436;5.978;2023-07-28T00:44:51;48.14;47.26;48.94;;
67322;Laerm;57666;51.436;5.978;2023-07-28T00:45:04;48.14;47.30;49.02;;
67322;Laerm;57666;51.436;5.978;2023-07-28T00:45:15;48.12;47.25;49.00;;
67322;Laerm;57666;51.436;5.978;2023-07-28T00:45:25;48.12;47.17;48.96;;
67322;Laerm;57666;51.436;5.978;2023-07-28T00:45:36;48.12;47.22;49.49;;
67322;Laerm;57666;51.436;5.978;2023-07-28T00:45:46;48.13;47.28;49.49;;
67322;Laerm;57666;51.436;5.978;2023-07-28T00:45:57;48.13;47.21;48.92;;
67322;Laerm;57666;51.436;5.978;2023-07-28T00:46:08;48.14;47.15;49.18;;
67322;Laerm;57666;51.436;5.978;2023-07-28T00:46:18;48.12;47.18;49.27;;
67322;Laerm;57666;51.436;5.978;2023-07-28T00:46:29;48.15;47.30;49.40;;
67322;Laerm;57666;51.436;5.978;2023-07-28T00:46:39;48.15;47.24;49.25;;
67322;Laerm;57666;51.436;5.978;2023-07-28T00:46:50;48.14;47.36;49.35;;
67322;Laerm;57666;51.436;5.978;2023-07-28T00:47:06;48.12;47.37;49.01;;
67322;Laerm;57666;51.436;5.978;2023-07-28T00:47:19;48.16;47.32;49.10;;
67322;Laerm;57666;51.436;5.978;2023-07-28T00:47:30;48.16;47.29;49.27;;
67322;Laerm;57666;51.436;5.978;2023-07-28T00:47:40;48.14;47.08;49.39;;
67322;Laerm;57666;51.436;5.978;2023-07-28T00:47:51;48.14;47.12;49.35;;
67322;Laerm;57666;51.436;5.978;2023-07-28T00:48:05;48.16;47.33;49.03;;
67322;Laerm;57666;51.436;5.978;2023-07-28T00:48:18;48.17;47.22;49.37;;
67322;Laerm;57666;51.436;5.978;2023-07-28T00:48:30;48.16;47.32;49.29;;
67322;Laerm;57666;51.436;5.978;2023-07-28T00:48:41;48.16;47.38;49.17;;
67322;Laerm;57666;51.436;5.978;2023-07-28T00:48:54;48.15;47.11;49.21;;
67322;Laerm;57666;51.436;5.978;2023-07-28T00:49:05;48.14;47.16;48.97;;
67322;Laerm;57666;51.436;5.978;2023-07-28T00:49:15;48.12;47.21;49.08;;
67322;Laerm;57666;51.436;5.978;2023-07-28T00:49:26;48.16;46.95;49.26;;
67322;Laerm;57666;51.436;5.978;2023-07-28T00:49:37;48.12;47.15;49.21;;
67322;Laerm;57666;51.436;5.978;2023-07-28T00:49:48;48.13;47.08;49.01;;
67322;Laerm;57666;51.436;5.978;2023-07-28T00:49:58;48.18;47.16;49.15;;
67322;Laerm;57666;51.436;5.978;2023-07-28T00:50:09;48.15;47.13;49.13;;
67322;Laerm;57666;51.436;5.978;2023-07-28T00:50:20;48.17;47.18;49.15;;
67322;Laerm;57666;51.436;5.978;2023-07-28T00:50:31;48.14;47.21;49.08;;
67322;Laerm;57666;51.436;5.978;2023-07-28T00:50:46;48.14;47.04;49.29;;
67322;Laerm;57666;51.436;5.978;2023-07-28T00:51:00;48.13;47.04;49.30;;
67322;Laerm;57666;51.436;5.978;2023-07-28T00:51:11;48.15;47.24;49.33;;
67322;Laerm;57666;51.436;5.978;2023-07-28T00:51:24;48.16;47.31;49.33;;
67322;Laerm;57666;51.436;5.978;2023-07-28T00:51:35;48.13;47.32;49.66;;
67322;Laerm;57666;51.436;5.978;2023-07-28T00:51:45;48.12;47.25;49.12;;
67322;Laerm;57666;51.436;5.978;2023-07-28T00:51:58;48.14;47.20;49.16;;
67322;Laerm;57666;51.436;5.978;2023-07-28T00:52:09;48.14;47.39;48.94;;
67322;Laerm;57666;51.436;5.978;2023-07-28T00:52:19;48.14;47.36;49.10;;
67322;Laerm;57666;51.436;5.978;2023-07-28T00:52:32;48.12;47.03;49.10;;
67322;Laerm;57666;51.436;5.978;2023-07-28T00:52:43;48.16;47.32;49.24;;
67322;Laerm;57666;51.436;5.978;2023-07-28T00:52:56;48.17;47.15;49.87;;
67322;Laerm;57666;51.436;5.978;2023-07-28T00:53:06;48.18;47.21;49.22;;
67322;Laerm;57666;51.436;5.978;2023-07-28T00:53:20;48.18;47.18;49.50;;
67322;Laerm;57666;51.436;5.978;2023-07-28T00:53:32;48.19;47.21;49.85;;
67322;Laerm;57666;51.436;5.978;2023-07-28T00:53:42;48.19;47.27;49.26;;
67322;Laerm;57666;51.436;5.978;2023-07-28T00:53:53;48.15;47.14;49.10;;
67322;Laerm;57666;51.436;5.978;2023-07-28T00:54:04;48.14;47.18;49.12;;
67322;Laerm;57666;51.436;5.978;2023-07-28T00:54:15;48.13;47.08;49.05;;
67322;Laerm;57666;51.436;5.978;2023-07-28T00:54:26;48.20;47.27;48.99;;
67322;Laerm;57666;51.436;5.978;2023-07-28T00:54:36;48.16;47.04;49.26;;
67322;Laerm;57666;51.436;5.978;2023-07-28T00:54:50;48.16;47.11;49.63;;
67322;Laerm;57666;51.436;5.978;2023-07-28T00:55:00;48.18;47.38;49.40;;
67322;Laerm;57666;51.436;5.978;2023-07-28T00:55:11;48.20;47.17;49.22;;
67322;Laerm;57666;51.436;5.978;2023-07-28T00:55:24;48.17;47.18;49.44;;
67322;Laerm;57666;51.436;5.978;2023-07-28T00:55:37;48.18;47.28;49.25;;
67322;Laerm;57666;51.436;5.978;2023-07-28T00:55:47;48.21;47.35;49.29;;
67322;Laerm;57666;51.436;5.978;2023-07-28T00:55:58;48.21;47.35;49.27;;
67322;Laerm;57666;51.436;5.978;2023-07-28T00:56:09;48.17;47.31;49.07;;
67322;Laerm;57666;51.436;5.978;2023-07-28T00:56:20;48.15;47.20;49.86;;
67322;Laerm;57666;51.436;5.978;2023-07-28T00:56:31;48.19;47.22;49.51;;
67322;Laerm;57666;51.436;5.978;2023-07-28T00:56:44;48.18;47.26;49.39;;
67322;Laerm;57666;51.436;5.978;2023-07-28T00:57:01;48.22;47.27;49.87;;
67322;Laerm;57666;51.436;5.978;2023-07-28T00:57:15;48.19;47.25;49.23;;
67322;Laerm;57666;51.436;5.978;2023-07-28T00:57:25;48.18;47.25;49.30;;
67322;Laerm;57666;51.436;5.978;2023-07-28T00:57:36;48.18;47.33;49.56;;
67322;Laerm;57666;51.436;5.978;2023-07-28T00:57:49;48.15;47.18;49.61;;
67322;Laerm;57666;51.436;5.978;2023-07-28T00:58:00;48.34;47.28;49.42;;
67322;Laerm;57666;51.436;5.978;2023-07-28T00:58:11;48.33;47.10;49.38;;
67322;Laerm;57666;51.436;5.978;2023-07-28T00:58:21;48.28;47.44;49.24;;
67322;Laerm;57666;51.436;5.978;2023-07-28T00:58:32;48.35;47.33;49.51;;
67322;Laerm;57666;51.436;5.978;2023-07-28T00:58:42;48.36;47.29;49.36;;
67322;Laerm;57666;51.436;5.978;2023-07-28T00:58:56;48.33;47.30;49.31;;
67322;Laerm;57666;51.436;5.978;2023-07-28T00:59:06;48.35;47.29;49.54;;
67322;Laerm;57666;51.436;5.978;2023-07-28T00:59:17;48.28;47.41;49.06;;
67322;Laerm;57666;51.436;5.978;2023-07-28T00:59:32;48.31;47.41;49.02;;
67322;Laerm;57666;51.436;5.978;2023-07-28T00:59:43;48.33;47.52;49.44;;
67322;Laerm;57666;51.436;5.978;2023-07-28T00:59:53;48.51;47.49;49.89;;
67322;Laerm;57666;51.436;5.978;2023-07-28T01:00:04;48.23;47.19;49.46;;
67322;Laerm;57666;51.436;5.978;2023-07-28T01:00:18;48.14;47.01;49.13;;
67322;Laerm;57666;51.436;5.978;2023-07-28T01:00:30;48.15;47.23;49.38;;
67322;Laerm;57666;51.436;5.978;2023-07-28T01:00:43;48.11;47.25;49.04;;
67322;Laerm;57666;51.436;5.978;2023-07-28T01:00:53;48.17;47.17;49.51;;
67322;Laerm;57666;51.436;5.978;2023-07-28T01:01:04;48.19;47.29;49.42;;
67322;Laerm;57666;51.436;5.978;2023-07-28T01:01:14;48.16;47.20;49.20;;
67322;Laerm;57666;51.436;5.978;2023-07-28T01:01:25;48.15;47.31;48.99;;
67322;Laerm;57666;51.436;5.978;2023-07-28T01:01:35;48.16;47.06;49.63;;
67322;Laerm;57666;51.436;5.978;2023-07-28T01:01:46;48.15;47.36;49.08;;
67322;Laerm;57666;51.436;5.978;2023-07-28T01:01:59;48.15;47.09;49.39;;
67322;Laerm;57666;51.436;5.978;2023-07-28T01:02:09;48.15;47.15;49.08;;
67322;Laerm;57666;51.436;5.978;2023-07-28T01:02:20;48.15;47.13;49.66;;